Time;durP1;ratioP1;P1;durP2;ratioP2;P2;SDS_P1;SDS_P2;PMS_P1;PMS_P2;Temp;Humidity;BMP_temperature;BMP_pressure;BME280_temperature;BME280_humidity;BME280_pressure;Samples;Min_cycle;Max_cycle;Signal;HPM_P1;HPM_P2
2021/05/03 00:02:23;;;;;;;8.68;6.03;;;6.70;1.00;;;;;;5079404;28;20180;-63
2021/05/03 00:05:19;;;;;;;10.02;5.80;;;6.70;1.00;;;;;;5082456;28;20066;-63
2021/05/03 00:08:07;;;;;;;7.30;6.18;;;6.50;1.00;;;;;;5078367;28;20072;-63
2021/05/03 00:10:54;;;;;;;7.80;5.72;;;6.50;1.00;;;;;;5085212;28;20044;-63
2021/05/03 00:13:42;;;;;;;10.40;6.13;;;6.40;1.00;;;;;;5084712;28;20882;-63
2021/05/03 00:16:30;;;;;;;6.75;5.53;;;6.30;1.00;;;;;;5081994;28;20127;-63
2021/05/03 00:19:17;;;;;;;10.52;6.68;;;6.20;1.60;;;;;;5080999;28;20505;-63
2021/05/03 00:22:04;;;;;;;10.43;6.78;;;6.20;2.00;;;;;;5082736;28;20044;-63
2021/05/03 00:24:52;;;;;;;7.95;5.93;;;6.10;2.30;;;;;;5081450;28;20040;-63
2021/05/03 00:27:39;;;;;;;7.07;5.82;;;6.20;2.40;;;;;;5077984;28;20396;-63
2021/05/03 00:30:27;;;;;;;8.02;6.15;;;6.10;3.20;;;;;;5080248;28;20047;-62
2021/05/03 00:33:14;;;;;;;9.50;6.93;;;6.00;5.40;;;;;;5082427;28;20053;-62
2021/05/03 00:36:01;;;;;;;9.50;6.53;;;5.90;5.90;;;;;;5084950;28;20054;-62
2021/05/03 00:38:49;;;;;;;10.60;7.10;;;5.90;6.60;;;;;;5083703;28;20522;-63
2021/05/03 00:41:36;;;;;;;11.90;6.93;;;5.90;5.90;;;;;;5081420;28;20050;-63
2021/05/03 00:44:26;;;;;;;9.48;7.00;;;5.90;5.90;;;;;;5077469;28;20036;-62
2021/05/03 00:47:14;;;;;;;10.25;6.90;;;6.00;6.00;;;;;;5077720;28;20050;-63
2021/05/03 00:50:03;;;;;;;10.38;6.55;;;5.90;6.30;;;;;;5083029;28;20072;-63
2021/05/03 00:52:52;;;;;;;8.18;6.65;;;5.90;5.50;;;;;;5078560;28;20552;-63
2021/05/03 00:55:39;;;;;;;10.52;7.07;;;5.90;5.10;;;;;;5085751;28;20054;-62
2021/05/03 00:58:27;;;;;;;10.75;7.43;;;5.90;6.00;;;;;;5083104;28;20058;-63
2021/05/03 01:01:14;;;;;;;10.32;6.93;;;5.80;5.80;;;;;;5082069;28;20551;-64
2021/05/03 01:04:02;;;;;;;10.02;6.70;;;5.70;7.10;;;;;;5077017;28;20046;-63
2021/05/03 01:06:49;;;;;;;11.15;7.68;;;5.70;8.00;;;;;;5081155;28;20174;-63
2021/05/03 01:09:36;;;;;;;10.02;7.55;;;5.70;8.10;;;;;;5080635;28;20040;-63
2021/05/03 01:12:24;;;;;;;11.07;7.80;;;5.70;8.90;;;;;;5083168;28;20044;-63
2021/05/03 01:15:12;;;;;;;12.93;7.78;;;5.70;9.40;;;;;;5083835;28;20032;-63
2021/05/03 01:18:02;;;;;;;11.60;7.35;;;5.60;9.30;;;;;;5080100;28;20044;-64
2021/05/03 01:20:54;;;;;;;10.63;8.13;;;5.60;9.30;;;;;;5084186;28;20716;-63
2021/05/03 01:23:41;;;;;;;8.57;6.80;;;5.60;10.30;;;;;;5081752;28;20601;-62
2021/05/03 01:26:28;;;;;;;9.82;7.78;;;5.50;10.40;;;;;;5075729;28;20462;-62
2021/05/03 01:29:16;;;;;;;9.25;7.03;;;5.60;10.20;;;;;;5080065;28;20048;-62
2021/05/03 01:32:04;;;;;;;8.73;6.88;;;5.50;11.10;;;;;;5078326;28;20048;-63
2021/05/03 01:34:52;;;;;;;10.63;7.57;;;5.50;11.60;;;;;;5080917;28;20047;-62
2021/05/03 01:37:40;;;;;;;10.00;7.50;;;5.60;10.90;;;;;;5079446;28;20044;-64
2021/05/03 01:40:29;;;;;;;12.60;8.30;;;5.50;11.50;;;;;;5083762;28;20226;-63
2021/05/03 01:43:19;;;;;;;9.45;7.22;;;5.50;11.60;;;;;;5077846;28;20052;-63
2021/05/03 01:46:07;;;;;;;11.07;8.30;;;5.50;12.30;;;;;;5077759;28;20036;-63
2021/05/03 01:48:55;;;;;;;10.35;7.07;;;5.40;12.90;;;;;;5077694;28;20040;-63
2021/05/03 01:51:42;;;;;;;11.20;8.35;;;5.40;13.60;;;;;;5079966;28;20057;-62
2021/05/03 01:54:31;;;;;;;8.70;7.30;;;5.40;13.40;;;;;;5080005;28;20048;-63
2021/05/03 01:57:18;;;;;;;11.07;8.02;;;5.40;14.30;;;;;;5077695;28;20367;-64
2021/05/03 02:00:07;;;;;;;11.10;8.15;;;5.50;13.80;;;;;;5083754;28;20504;-64
2021/05/03 02:02:54;;;;;;;9.40;7.63;;;5.50;12.90;;;;;;5081154;28;20052;-63
2021/05/03 02:05:43;;;;;;;10.27;7.72;;;5.50;11.50;;;;;;5081980;28;20412;-62
2021/05/03 02:08:31;;;;;;;11.00;7.43;;;5.50;11.50;;;;;;5078184;28;20427;-63
2021/05/03 02:11:19;;;;;;;10.57;7.80;;;5.50;11.70;;;;;;5080022;28;20059;-62
2021/05/03 02:14:07;;;;;;;10.38;7.80;;;5.40;12.30;;;;;;5077270;28;20040;-64
2021/05/03 02:16:54;;;;;;;13.23;7.63;;;5.40;12.30;;;;;;5074537;28;20050;-62
2021/05/03 02:19:41;;;;;;;11.15;8.45;;;5.30;13.40;;;;;;5086011;28;20077;-62
2021/05/03 02:22:28;;;;;;;10.52;7.57;;;5.30;13.50;;;;;;5080179;28;20422;-62
2021/05/03 02:25:16;;;;;;;10.70;8.60;;;5.20;13.60;;;;;;5077341;28;20047;-62
2021/05/03 02:28:08;;;;;;;12.32;8.55;;;5.20;14.20;;;;;;5075128;28;20090;-63
2021/05/03 02:30:55;;;;;;;14.52;8.95;;;5.20;15.00;;;;;;5075004;28;20044;-64
2021/05/03 02:33:42;;;;;;;12.70;8.85;;;5.10;15.60;;;;;;5077781;28;20048;-64
2021/05/03 02:36:29;;;;;;;11.43;8.35;;;5.00;15.60;;;;;;5077727;28;20045;-63
2021/05/03 02:39:16;;;;;;;12.02;9.07;;;5.00;16.10;;;;;;5081174;28;20527;-63
2021/05/03 02:42:04;;;;;;;13.70;10.02;;;4.80;16.20;;;;;;5082124;28;20044;-62
2021/05/03 02:44:52;;;;;;;17.08;11.18;;;4.70;18.10;;;;;;5080946;28;20119;-64
2021/05/03 02:47:40;;;;;;;13.82;9.93;;;4.90;17.10;;;;;;5078824;28;20051;-63
2021/05/03 02:50:27;;;;;;;11.90;9.63;;;4.90;15.60;;;;;;5077807;28;20058;-64
2021/05/03 02:53:15;;;;;;;12.73;9.07;;;5.00;15.40;;;;;;5074520;28;20051;-63
2021/05/03 02:56:02;;;;;;;15.70;9.48;;;5.00;15.80;;;;;;5077210;28;20045;-63
2021/05/03 02:58:49;;;;;;;14.15;10.02;;;5.00;16.10;;;;;;5078512;28;20048;-63
2021/05/03 03:01:37;;;;;;;13.15;10.35;;;4.80;16.00;;;;;;5084608;28;20074;-64
2021/05/03 03:04:24;;;;;;;14.25;9.70;;;4.80;16.70;;;;;;5078141;28;20050;-63
2021/05/03 03:07:11;;;;;;;13.13;9.95;;;4.80;17.70;;;;;;5077770;28;20048;-63
2021/05/03 03:10:00;;;;;;;13.80;9.63;;;4.80;17.20;;;;;;5076966;28;20085;-63
2021/05/03 03:12:48;;;;;;;16.88;10.00;;;4.80;17.10;;;;;;5074669;28;20419;-63
2021/05/03 03:15:36;;;;;;;12.80;9.63;;;4.90;16.60;;;;;;5079051;28;20056;-63
2021/05/03 03:18:24;;;;;;;12.82;9.75;;;4.80;16.80;;;;;;5074265;28;20118;-62
2021/05/03 03:21:11;;;;;;;15.48;10.40;;;4.80;17.80;;;;;;5082461;28;20040;-63
2021/05/03 03:23:59;;;;;;;13.40;9.80;;;4.80;17.80;;;;;;5082129;28;20048;-63
2021/05/03 03:26:46;;;;;;;20.20;10.10;;;4.80;18.10;;;;;;5079015;28;20044;-63
2021/05/03 03:29:33;;;;;;;22.85;10.43;;;4.80;18.30;;;;;;5082870;28;20050;-64
2021/05/03 03:32:20;;;;;;;15.15;10.50;;;4.80;18.50;;;;;;5080947;28;20043;-63
2021/05/03 03:35:10;;;;;;;14.98;9.88;;;4.80;17.90;;;;;;5076891;28;20503;-64
2021/05/03 03:37:57;;;;;;;13.57;9.70;;;4.90;18.00;;;;;;5078685;28;20052;-63
2021/05/03 03:40:44;;;;;;;14.13;10.57;;;4.90;18.60;;;;;;5085132;28;20050;-63
2021/05/03 03:43:32;;;;;;;12.85;10.05;;;4.90;18.60;;;;;;5085030;28;20572;-62
2021/05/03 03:46:20;;;;;;;16.35;10.52;;;4.90;18.80;;;;;;5078284;28;20373;-63
2021/05/03 03:49:07;;;;;;;15.32;10.10;;;4.90;19.10;;;;;;5082766;28;20177;-62
2021/05/03 03:51:55;;;;;;;13.13;9.77;;;4.90;18.40;;;;;;5082573;28;20104;-63
2021/05/03 03:54:43;;;;;;;14.38;10.10;;;4.90;19.10;;;;;;5080414;28;20400;-63
2021/05/03 03:57:30;;;;;;;19.08;9.82;;;5.00;18.50;;;;;;5078215;28;20119;-63
2021/05/03 04:00:18;;;;;;;15.60;10.20;;;4.90;18.00;;;;;;5083427;28;20590;-63
2021/05/03 04:03:07;;;;;;;17.80;10.30;;;4.90;18.30;;;;;;5084359;28;20051;-63
2021/05/03 04:06:09;;;;;;;16.10;9.63;;;5.00;18.20;;;;;;5086541;28;20123;-65
2021/05/03 04:09:04;;;;;;;13.98;10.10;;;4.90;18.50;;;;;;5084790;28;20145;-63
2021/05/03 04:12:08;;;;;;;14.43;10.10;;;4.90;18.50;;;;;;5083240;28;20117;-64
2021/05/03 04:21:11;;;;;;;12.65;10.45;;;5.00;18.50;;;;;;5082562;28;20044;-63
2021/05/03 04:24:08;;;;;;;17.88;10.25;;;5.10;18.10;;;;;;5076743;28;20047;-63
2021/05/03 04:26:55;;;;;;;14.77;11.13;;;5.00;17.70;;;;;;5079087;28;20040;-63
2021/05/03 04:29:42;;;;;;;15.38;10.55;;;5.20;17.50;;;;;;5082425;28;20070;-63
2021/05/03 04:32:30;;;;;;;13.55;9.93;;;5.60;14.40;;;;;;5083070;28;20069;-63
2021/05/03 04:35:17;;;;;;;12.60;9.85;;;6.70;9.10;;;;;;5083334;28;20039;-63
2021/05/03 04:38:05;;;;;;;11.57;8.50;;;7.10;3.70;;;;;;5079893;28;20401;-64
2021/05/03 04:40:53;;;;;;;14.02;8.45;;;7.30;1.00;;;;;;5083719;28;20040;-64
2021/05/03 04:43:41;;;;;;;12.57;8.88;;;7.50;1.00;;;;;;5079456;28;20040;-64
2021/05/03 04:46:28;;;;;;;13.20;7.90;;;7.90;1.00;;;;;;5078014;28;20040;-64
2021/05/03 04:49:15;;;;;;;12.93;8.82;;;7.80;1.00;;;;;;5082147;28;21185;-62
2021/05/03 04:52:02;;;;;;;17.90;8.10;;;8.30;1.00;;;;;;5082541;28;20047;-63
2021/05/03 04:54:50;;;;;;;14.45;8.73;;;7.40;1.00;;;;;;5081576;28;20044;-64
2021/05/03 04:57:38;;;;;;;18.17;9.13;;;6.50;2.90;;;;;;5077675;28;20052;-64
2021/05/03 05:00:25;;;;;;;11.10;8.30;;;6.30;5.30;;;;;;5082670;28;20051;-63
2021/05/03 05:03:12;;;;;;;12.32;8.02;;;8.10;1.00;;;;;;5079938;28;20040;-64
2021/05/03 05:05:59;;;;;;;12.07;8.23;;;9.50;1.00;;;;;;5081822;28;20505;-63
2021/05/03 05:08:46;;;;;;;11.45;7.93;;;10.40;1.00;;;;;;5077592;28;20047;-63
2021/05/03 05:11:34;;;;;;;12.38;7.95;;;10.20;1.00;;;;;;5080099;28;20495;-64
2021/05/03 05:14:22;;;;;;;11.35;7.80;;;10.20;1.00;;;;;;5085068;28;20169;-64
2021/05/03 05:17:10;;;;;;;11.75;8.75;;;9.80;1.00;;;;;;5078913;28;20034;-64
2021/05/03 05:19:59;;;;;;;13.10;9.60;;;9.40;1.00;;;;;;5081938;28;20044;-64
2021/05/03 05:22:46;;;;;;;10.80;8.80;;;7.70;1.00;;;;;;5077611;28;20231;-64
2021/05/03 05:25:34;;;;;;;15.35;9.05;;;9.40;1.00;;;;;;5080147;28;20127;-63
2021/05/03 05:28:21;;;;;;;13.02;8.77;;;10.10;1.00;;;;;;5075470;28;20416;-63
2021/05/03 05:31:09;;;;;;;10.98;8.27;;;11.10;1.00;;;;;;5078296;28;20045;-64
2021/05/03 05:33:56;;;;;;;13.00;8.85;;;9.60;1.00;;;;;;5081329;28;20075;-64
2021/05/03 05:36:44;;;;;;;13.13;7.80;;;10.60;1.00;;;;;;5077510;28;20048;-65
2021/05/03 05:39:32;;;;;;;17.58;9.38;;;11.20;1.00;;;;;;5081098;28;20516;-63
2021/05/03 05:42:19;;;;;;;11.05;8.98;;;11.10;1.00;;;;;;5079429;28;20048;-63
2021/05/03 05:45:07;;;;;;;11.52;8.52;;;11.00;1.00;;;;;;5082557;28;20056;-64
2021/05/03 05:47:55;;;;;;;16.27;9.15;;;9.80;1.00;;;;;;5072993;28;20051;-63
2021/05/03 05:50:42;;;;;;;12.38;8.50;;;8.90;1.00;;;;;;5079462;28;20048;-63
2021/05/03 05:53:30;;;;;;;13.02;8.35;;;9.00;1.00;;;;;;5076468;28;20048;-64
2021/05/03 05:56:18;;;;;;;11.13;7.50;;;8.90;1.00;;;;;;5082913;28;20044;-64
2021/05/03 05:59:06;;;;;;;13.57;8.32;;;8.80;1.00;;;;;;5081662;28;20052;-64
2021/05/03 06:01:53;;;;;;;11.07;7.93;;;9.00;1.00;;;;;;5082172;28;20495;-64
2021/05/03 06:04:43;;;;;;;14.52;8.13;;;9.30;1.00;;;;;;5076725;28;20048;-64
2021/05/03 06:07:30;;;;;;;11.45;7.72;;;8.90;1.00;;;;;;5075761;28;20048;-64
2021/05/03 06:10:18;;;;;;;9.60;7.22;;;9.10;1.00;;;;;;5079383;28;20516;-64
2021/05/03 06:13:05;;;;;;;10.93;7.82;;;8.60;1.00;;;;;;5080086;28;20052;-64
2021/05/03 06:15:52;;;;;;;11.93;8.70;;;9.20;1.00;;;;;;5084924;28;20048;-65
2021/05/03 06:18:39;;;;;;;18.23;9.02;;;9.40;1.00;;;;;;5080289;28;20047;-65
2021/05/03 06:21:27;;;;;;;10.00;7.68;;;9.40;1.00;;;;;;5081377;28;20047;-64
2021/05/03 06:24:14;;;;;;;10.73;7.50;;;9.60;1.00;;;;;;5078310;28;20085;-64
2021/05/03 06:27:02;;;;;;;9.48;6.70;;;9.30;1.00;;;;;;5079073;28;20051;-65
2021/05/03 06:29:49;;;;;;;9.68;6.80;;;9.60;1.00;;;;;;5077952;28;20516;-64
2021/05/03 06:32:36;;;;;;;15.20;7.13;;;9.70;1.00;;;;;;5076865;28;20614;-64
2021/05/03 06:35:24;;;;;;;14.10;8.40;;;9.80;1.00;;;;;;5082885;28;20584;-64
2021/05/03 06:38:12;;;;;;;10.02;6.93;;;9.70;1.00;;;;;;5079247;28;20050;-63
2021/05/03 06:41:00;;;;;;;11.20;7.53;;;9.70;1.00;;;;;;5081093;28;20051;-62
2021/05/03 06:43:47;;;;;;;8.25;6.95;;;9.60;1.00;;;;;;5079612;28;20052;-63
2021/05/03 06:46:34;;;;;;;12.40;6.97;;;9.40;1.00;;;;;;5077477;28;20067;-65
2021/05/03 06:49:21;;;;;;;8.30;6.60;;;9.40;1.00;;;;;;5075620;28;20156;-64
2021/05/03 06:52:08;;;;;;;10.65;6.72;;;9.50;1.00;;;;;;5079545;28;20047;-64
2021/05/03 06:54:57;;;;;;;8.10;6.78;;;9.60;1.00;;;;;;5081569;28;20059;-64
2021/05/03 06:57:44;;;;;;;7.72;6.22;;;9.20;1.00;;;;;;5079254;28;20052;-63
2021/05/03 07:00:35;;;;;;;9.32;6.88;;;9.30;1.00;;;;;;5084889;28;20036;-64
2021/05/03 07:03:23;;;;;;;8.38;6.40;;;9.60;1.00;;;;;;5079331;28;20114;-64
2021/05/03 07:06:10;;;;;;;9.77;6.88;;;10.00;1.00;;;;;;5080685;28;20097;-64
2021/05/03 07:08:57;;;;;;;8.25;6.40;;;9.80;1.00;;;;;;5078801;28;20048;-64
2021/05/03 07:11:46;;;;;;;10.98;7.25;;;9.90;1.00;;;;;;5082299;28;20067;-63
2021/05/03 07:14:33;;;;;;;12.43;7.72;;;9.60;1.00;;;;;;5082480;28;20466;-63
2021/05/03 07:17:20;;;;;;;8.65;6.82;;;9.70;1.00;;;;;;5080616;28;20044;-63
2021/05/03 07:20:10;;;;;;;9.63;7.22;;;10.10;1.00;;;;;;5085876;28;20884;-64
2021/05/03 07:22:57;;;;;;;8.60;6.93;;;11.10;1.00;;;;;;5079511;28;20044;-64
2021/05/03 07:25:44;;;;;;;12.60;7.10;;;10.40;1.00;;;;;;5082258;28;20115;-64
2021/05/03 07:28:32;;;;;;;8.02;6.53;;;10.10;1.00;;;;;;5081546;28;20119;-64
2021/05/03 07:31:19;;;;;;;8.25;7.03;;;11.00;1.00;;;;;;5083085;28;20052;-65
2021/05/03 07:34:07;;;;;;;10.35;6.53;;;11.40;1.00;;;;;;5077379;28;20507;-65
2021/05/03 07:36:54;;;;;;;9.10;7.75;;;10.60;1.00;;;;;;5082137;28;20394;-63
2021/05/03 07:39:42;;;;;;;9.32;6.78;;;10.40;1.00;;;;;;5087262;28;20071;-64
2021/05/03 07:42:29;;;;;;;9.38;6.93;;;9.70;1.00;;;;;;5083060;28;20353;-64
2021/05/03 07:45:29;;;;;;;7.80;6.47;;;10.60;1.00;;;;;;5083861;28;20416;-64
2021/05/03 07:48:17;;;;;;;11.73;7.32;;;10.40;1.00;;;;;;5076701;28;20059;-64
2021/05/03 07:51:05;;;;;;;8.32;6.68;;;10.50;1.00;;;;;;5081605;28;20119;-63
2021/05/03 07:53:53;;;;;;;11.38;7.25;;;11.10;1.00;;;;;;5077421;28;20052;-64
2021/05/03 07:56:41;;;;;;;9.95;6.93;;;10.40;1.00;;;;;;5083467;28;20051;-64
2021/05/03 07:59:28;;;;;;;8.13;6.95;;;10.50;1.00;;;;;;5082922;28;20105;-64
2021/05/03 08:02:16;;;;;;;9.52;7.05;;;10.80;1.00;;;;;;5085918;28;20048;-63
2021/05/03 08:05:06;;;;;;;10.38;6.72;;;10.70;1.00;;;;;;5083668;28;20511;-63
2021/05/03 08:07:53;;;;;;;9.98;7.47;;;10.80;1.00;;;;;;5079268;28;20503;-64
2021/05/03 08:10:40;;;;;;;9.07;6.22;;;11.20;1.00;;;;;;5077926;28;20044;-63
2021/05/03 08:13:29;;;;;;;8.27;6.20;;;10.90;1.00;;;;;;5080662;28;20538;-63
2021/05/03 08:16:18;;;;;;;13.73;7.45;;;10.30;1.00;;;;;;5082073;28;20415;-64
2021/05/03 08:19:06;;;;;;;9.48;6.88;;;10.00;1.00;;;;;;5080723;28;20369;-64
2021/05/03 08:22:13;;;;;;;12.63;7.07;;;10.60;1.00;;;;;;5084507;28;20568;-64
2021/05/03 08:25:02;;;;;;;8.70;6.10;;;10.50;1.00;;;;;;5086703;28;20060;-64
2021/05/03 08:27:49;;;;;;;8.27;6.50;;;11.00;1.00;;;;;;5082523;28;20040;-65
2021/05/03 08:30:37;;;;;;;9.38;6.65;;;10.80;1.00;;;;;;5081479;28;20036;-64
2021/05/03 08:33:24;;;;;;;8.63;6.72;;;10.80;1.00;;;;;;5078501;28;20052;-64
2021/05/03 08:36:12;;;;;;;9.73;6.90;;;10.70;1.00;;;;;;5081009;28;20032;-63
2021/05/03 08:39:00;;;;;;;7.53;6.10;;;10.30;1.00;;;;;;5076680;28;20040;-63
2021/05/03 08:41:47;;;;;;;10.50;6.82;;;10.40;1.00;;;;;;5081512;28;20411;-63
2021/05/03 08:44:34;;;;;;;7.05;5.47;;;10.40;1.00;;;;;;5083194;28;20555;-64
2021/05/03 08:47:22;;;;;;;8.70;5.80;;;11.10;1.00;;;;;;5085771;28;20044;-64
2021/05/03 08:50:13;;;;;;;9.57;6.10;;;11.40;1.00;;;;;;5082615;28;20120;-64
2021/05/03 08:53:05;;;;;;;8.07;6.15;;;11.10;1.00;;;;;;5077774;28;20580;-64
2021/05/03 08:55:52;;;;;;;9.57;6.30;;;11.50;1.00;;;;;;5081190;28;20048;-63
2021/05/03 08:58:40;;;;;;;8.60;6.45;;;11.80;1.00;;;;;;5077174;28;20138;-63
2021/05/03 09:01:28;;;;;;;9.13;5.68;;;11.70;1.00;;;;;;5081226;28;20049;-64
2021/05/03 09:04:16;;;;;;;9.60;6.30;;;10.90;1.00;;;;;;5077584;28;20054;-64
2021/05/03 09:07:11;;;;;;;6.07;5.35;;;11.30;1.00;;;;;;5082843;28;20514;-63
2021/05/03 09:10:09;;;;;;;8.10;5.78;;;11.10;1.00;;;;;;5082680;28;20576;-64
2021/05/03 09:13:07;;;;;;;10.50;6.10;;;10.90;1.00;;;;;;5081676;28;20385;-63
2021/05/03 09:16:13;;;;;;;5.85;4.78;;;11.80;1.00;;;;;;5080861;28;20577;-63
2021/05/03 09:19:03;;;;;;;6.35;5.30;;;12.80;1.00;;;;;;5078914;28;20071;-64
2021/05/03 09:21:50;;;;;;;8.45;6.00;;;13.30;1.00;;;;;;5076860;28;20044;-65
2021/05/03 09:24:37;;;;;;;9.07;5.70;;;13.50;1.00;;;;;;5079522;28;20049;-64
2021/05/03 09:27:25;;;;;;;11.00;6.55;;;12.70;1.00;;;;;;5076292;28;20041;-64
2021/05/03 09:30:14;;;;;;;8.98;5.90;;;12.90;1.00;;;;;;5080591;28;20547;-63
2021/05/03 09:33:18;;;;;;;7.20;5.47;;;12.40;1.00;;;;;;5081934;28;20081;-63
2021/05/03 09:36:08;;;;;;;;;;;11.70;1.00;;;;;;5083305;28;20063;-63
2021/05/03 09:38:55;;;;;;;7.45;5.20;;;12.40;1.00;;;;;;5078384;28;19920;-64
2021/05/03 09:41:48;;;;;;;7.57;5.30;;;11.70;1.00;;;;;;5079245;28;20063;-62
2021/05/03 09:44:36;;;;;;;7.70;4.97;;;12.00;1.00;;;;;;5073719;28;20059;-64
2021/05/03 09:47:24;;;;;;;9.82;5.20;;;11.50;1.00;;;;;;5078481;28;20506;-64
2021/05/03 09:50:14;;;;;;;6.20;5.13;;;11.30;1.00;;;;;;5078460;28;20481;-64
2021/05/03 09:53:04;;;;;;;9.98;5.25;;;11.40;1.00;;;;;;5079208;28;20051;-63
2021/05/03 09:55:52;;;;;;;6.88;4.18;;;11.40;1.00;;;;;;5079599;28;20040;-64
2021/05/03 09:58:41;;;;;;;6.70;5.00;;;11.70;1.00;;;;;;5079333;28;20059;-64
2021/05/03 10:01:29;;;;;;;7.25;5.05;;;11.80;1.00;;;;;;5081306;28;20491;-63
2021/05/03 10:04:16;;;;;;;8.00;5.15;;;12.00;1.00;;;;;;5080783;28;20052;-64
2021/05/03 10:07:04;;;;;;;6.22;5.22;;;12.20;1.00;;;;;;5077864;28;20051;-64
2021/05/03 10:09:56;;;;;;;6.03;4.82;;;12.40;1.00;;;;;;5075417;28;20454;-65
2021/05/03 10:12:45;;;;;;;5.82;4.22;;;12.80;1.00;;;;;;5072894;28;20158;-64
2021/05/03 10:15:32;;;;;;;8.77;4.68;;;12.90;1.00;;;;;;5077820;28;20468;-64
2021/05/03 10:18:21;;;;;;;4.72;4.25;;;13.00;1.00;;;;;;5082796;28;20048;-63
2021/05/03 10:21:11;;;;;;;6.57;4.82;;;12.90;1.00;;;;;;5083035;28;20051;-64
2021/05/03 10:23:59;;;;;;;5.20;4.40;;;12.90;1.00;;;;;;5080550;28;20047;-64
2021/05/03 10:26:47;;;;;;;6.32;4.57;;;12.90;1.00;;;;;;5080510;28;20036;-65
2021/05/03 10:29:40;;;;;;;5.70;4.75;;;13.40;1.00;;;;;;5077506;28;20471;-65
2021/05/03 10:32:27;;;;;;;7.20;4.93;;;13.60;1.00;;;;;;5075242;28;20071;-64
2021/05/03 10:35:27;;;;;;;6.85;4.90;;;13.20;1.00;;;;;;5080236;28;20044;-65
2021/05/03 10:38:37;;;;;;;4.72;3.80;;;13.00;1.00;;;;;;5080301;28;20404;-64
2021/05/03 10:41:26;;;;;;;7.30;4.32;;;13.10;1.00;;;;;;5073309;28;20055;-64
2021/05/03 10:44:19;;;;;;;4.80;3.80;;;12.70;1.00;;;;;;5080313;28;20055;-64
2021/05/03 10:47:26;;;;;;;13.90;10.68;;;13.20;1.00;;;;;;5084225;28;20397;-64
2021/05/03 10:50:45;;;;;;;4.57;3.90;;;13.60;1.00;;;;;;5080424;28;20040;-64
2021/05/03 10:53:36;;;;;;;6.20;3.95;;;13.00;1.00;;;;;;5081375;28;20170;-65
2021/05/03 10:56:38;;;;;;;5.25;3.90;;;13.10;1.00;;;;;;5080233;28;20059;-65
2021/05/03 10:59:26;;;;;;;7.60;4.28;;;13.30;1.00;;;;;;5077825;28;20066;-65
2021/05/03 11:02:16;;;;;;;9.02;5.03;;;13.50;1.00;;;;;;5080124;28;20047;-65
2021/05/03 11:05:23;;;;;;;4.85;4.20;;;13.30;1.00;;;;;;5077728;28;20056;-65
2021/05/03 11:08:29;;;;;;;8.10;5.78;;;13.50;1.00;;;;;;5078809;28;20036;-64
2021/05/03 11:11:18;;;;;;;4.10;3.38;;;14.30;1.00;;;;;;5079358;28;20055;-64
2021/05/03 11:14:09;;;;;;;7.75;4.75;;;13.70;1.00;;;;;;5076516;28;20107;-64
2021/05/03 11:17:06;;;;;;;5.65;4.40;;;13.50;1.00;;;;;;5077724;28;20557;-63
2021/05/03 11:20:05;;;;;;;6.80;5.07;;;14.50;1.00;;;;;;5076962;28;20447;-64
2021/05/03 11:23:01;;;;;;;5.43;4.43;;;14.00;1.00;;;;;;5080859;28;20052;-64
2021/05/03 11:25:49;;;;;;;5.38;4.05;;;13.80;1.00;;;;;;5082229;28;20097;-64
2021/05/03 11:28:40;;;;;;;5.70;4.45;;;13.30;1.00;;;;;;5076597;28;20500;-65
2021/05/03 11:31:28;;;;;;;4.43;3.70;;;12.80;1.00;;;;;;5077976;28;20048;-64
2021/05/03 11:34:18;;;;;;;4.22;3.45;;;12.80;1.00;;;;;;5078201;28;20202;-65
2021/05/03 11:37:06;;;;;;;4.82;3.50;;;13.20;1.00;;;;;;5078491;28;20075;-64
2021/05/03 11:40:00;;;;;;;5.28;3.13;;;13.20;1.00;;;;;;5072467;28;20055;-64
2021/05/03 11:43:03;;;;;;;3.55;2.65;;;13.40;1.00;;;;;;5076296;28;20484;-65
2021/05/03 11:45:50;;;;;;;4.10;3.00;;;13.70;1.00;;;;;;5081000;28;20037;-64
2021/05/03 11:48:38;;;;;;;4.75;3.10;;;14.20;1.00;;;;;;5084523;28;20568;-65
2021/05/03 11:51:25;;;;;;;3.97;2.95;;;13.70;1.00;;;;;;5083506;28;20052;-64
2021/05/03 11:54:27;;;;;;;3.97;3.08;;;12.60;1.00;;;;;;5081360;28;20075;-64
2021/05/03 11:57:16;;;;;;;5.53;3.05;;;13.10;1.00;;;;;;5081395;28;20040;-65
2021/05/03 12:00:07;;;;;;;3.38;2.83;;;13.10;1.00;;;;;;5080661;28;20036;-64
2021/05/03 12:03:03;;;;;;;5.03;2.88;;;13.40;1.00;;;;;;5075577;28;20045;-65
2021/05/03 12:05:51;;;;;;;6.40;3.65;;;14.20;1.00;;;;;;5078625;28;20507;-65
2021/05/03 12:08:38;;;;;;;5.00;3.50;;;13.70;1.00;;;;;;5081243;28;20094;-65
2021/05/03 12:11:26;;;;;;;4.57;3.72;;;14.00;1.00;;;;;;5086454;28;20048;-64
2021/05/03 12:14:13;;;;;;;4.20;3.33;;;14.10;1.00;;;;;;5085966;28;20500;-64
2021/05/03 12:17:01;;;;;;;3.72;3.33;;;13.80;1.00;;;;;;5083592;28;20046;-64
2021/05/03 12:19:49;;;;;;;5.30;3.25;;;13.40;1.00;;;;;;5081046;28;20040;-66
2021/05/03 12:22:38;;;;;;;5.00;3.17;;;13.20;1.00;;;;;;5078108;28;20108;-64
2021/05/03 12:25:26;;;;;;;3.78;3.42;;;13.00;1.00;;;;;;5079417;28;20049;-66
2021/05/03 12:28:17;;;;;;;6.57;3.40;;;13.20;1.00;;;;;;5080579;28;20041;-65
2021/05/03 12:31:04;;;;;;;4.35;3.03;;;13.60;1.00;;;;;;5084578;28;20170;-65
2021/05/03 12:33:52;;;;;;;5.25;3.08;;;13.20;1.00;;;;;;5083363;28;20050;-65
2021/05/03 12:36:39;;;;;;;4.60;3.60;;;14.00;1.00;;;;;;5082488;28;20190;-65
2021/05/03 12:39:26;;;;;;;5.68;4.00;;;13.90;1.00;;;;;;5078038;28;20436;-65
2021/05/03 12:42:34;;;;;;;8.40;3.45;;;14.00;1.00;;;;;;5077884;28;20503;-64
2021/05/03 12:45:32;;;;;;;4.63;3.00;;;13.30;1.00;;;;;;5079340;28;20040;-65
2021/05/03 12:48:31;;;;;;;5.15;3.30;;;13.50;1.00;;;;;;5075756;28;20126;-64
2021/05/03 12:51:34;;;;;;;4.50;2.95;;;13.90;1.00;;;;;;5081277;28;20056;-66
2021/05/03 12:54:39;;;;;;;4.28;2.67;;;14.20;1.00;;;;;;5077169;28;20515;-64
2021/05/03 12:57:43;;;;;;;4.63;2.78;;;14.40;1.00;;;;;;5078203;28;20133;-66
2021/05/03 13:00:48;;;;;;;3.38;2.65;;;14.90;1.00;;;;;;5076915;28;20574;-65
2021/05/03 13:03:45;;;;;;;3.97;2.38;;;14.40;1.00;;;;;;5080384;28;20101;-64
2021/05/03 13:06:44;;;;;;;4.32;2.47;;;14.60;1.00;;;;;;5083995;28;20118;-65
2021/05/03 13:09:52;;;;;;;4.05;2.47;;;15.10;1.00;;;;;;5080324;28;20044;-65
2021/05/03 13:25:38;;;;;;;2.58;2.20;;;15.50;1.00;;;;;;5003870;28;20148;-64
2021/05/03 13:28:25;;;;;;;6.80;2.00;;;14.80;1.00;;;;;;5079187;28;20093;-64
2021/05/03 13:31:12;;;;;;;4.10;1.85;;;15.10;1.00;;;;;;5078913;28;20044;-64
2021/05/03 13:34:00;;;;;;;3.20;1.73;;;15.20;1.00;;;;;;5077280;28;20075;-64
2021/05/03 13:36:50;;;;;;;2.47;2.20;;;15.00;1.00;;;;;;5079392;28;20044;-64
2021/05/03 13:39:38;;;;;;;5.63;2.25;;;15.00;1.00;;;;;;5075767;28;20048;-65
2021/05/03 13:42:25;;;;;;;5.22;2.80;;;15.70;1.00;;;;;;5079004;28;20046;-65
2021/05/03 13:45:13;;;;;;;4.15;3.17;;;13.90;1.00;;;;;;5083774;28;20461;-64
2021/05/03 13:48:06;;;;;;;3.70;2.47;;;14.10;1.00;;;;;;5081732;28;20040;-64
2021/05/03 13:50:53;;;;;;;4.65;3.08;;;14.30;1.00;;;;;;5079690;28;20043;-65
2021/05/03 13:53:40;;;;;;;3.63;2.80;;;15.30;1.00;;;;;;5079325;28;20182;-64
2021/05/03 13:56:29;;;;;;;2.88;2.58;;;14.70;1.00;;;;;;5080261;28;20040;-64
2021/05/03 13:59:16;;;;;;;4.88;2.55;;;14.30;1.00;;;;;;5076227;28;20119;-64
2021/05/03 14:02:05;;;;;;;5.70;2.78;;;14.20;1.00;;;;;;5080558;28;20056;-64
2021/05/03 14:04:52;;;;;;;2.45;2.05;;;14.30;1.00;;;;;;5080579;28;20417;-65
2021/05/03 14:07:40;;;;;;;2.50;2.30;;;14.60;1.00;;;;;;5084912;28;20487;-66
2021/05/03 14:10:27;;;;;;;2.92;2.60;;;14.90;1.00;;;;;;5078536;28;20449;-64
2021/05/03 14:13:15;;;;;;;5.38;2.83;;;15.40;1.00;;;;;;5077539;28;20141;-64
2021/05/03 14:16:03;;;;;;;3.00;2.60;;;15.10;1.00;;;;;;5078385;28;20067;-65
2021/05/03 14:18:50;;;;;;;4.72;3.28;;;15.30;1.00;;;;;;5075704;28;20044;-61
2021/05/03 14:21:37;;;;;;;3.78;2.78;;;15.90;1.00;;;;;;5075900;28;20127;-61
2021/05/03 14:24:24;;;;;;;5.13;3.35;;;15.60;1.00;;;;;;5079748;28;20071;-61
2021/05/03 14:27:12;;;;;;;5.40;3.80;;;14.10;1.00;;;;;;5083201;28;20153;-60
2021/05/03 14:30:08;;;;;;;3.80;3.30;;;14.10;1.00;;;;;;5078013;28;20073;-60
2021/05/03 14:32:58;;;;;;;5.28;2.90;;;13.50;1.00;;;;;;5076039;28;20043;-61
2021/05/03 14:35:47;;;;;;;4.07;2.60;;;13.90;1.00;;;;;;5081263;28;20047;-60
2021/05/03 14:38:34;;;;;;;4.82;3.10;;;14.20;1.00;;;;;;5075315;28;20040;-59
2021/05/03 14:41:21;;;;;;;4.50;2.88;;;14.30;1.00;;;;;;5083003;28;20150;-60
2021/05/03 14:44:11;;;;;;;5.63;3.53;;;13.70;1.00;;;;;;5077386;28;20364;-59
2021/05/03 14:47:01;;;;;;;3.53;2.90;;;14.30;1.00;;;;;;5083039;28;20048;-59
2021/05/03 14:49:53;;;;;;;5.60;3.25;;;14.40;1.00;;;;;;5078594;28;20044;-60
2021/05/03 14:52:53;;;;;;;6.78;3.50;;;14.60;1.00;;;;;;5080197;28;20059;-61
2021/05/03 14:55:41;;;;;;;5.95;3.38;;;14.30;1.00;;;;;;5081202;28;20197;-64
2021/05/03 14:58:28;;;;;;;4.05;3.25;;;14.70;1.00;;;;;;5077500;28;20056;-64
2021/05/03 15:01:15;;;;;;;6.07;3.70;;;14.30;1.00;;;;;;5077461;28;20116;-64
2021/05/03 15:04:04;;;;;;;4.28;2.92;;;14.10;1.00;;;;;;5075254;28;20093;-64
2021/05/03 15:06:55;;;;;;;3.88;3.47;;;14.20;1.00;;;;;;5076755;28;20044;-64
2021/05/03 15:09:44;;;;;;;3.83;2.90;;;14.00;1.00;;;;;;5077438;28;20116;-64
2021/05/03 15:12:35;;;;;;;5.93;4.35;;;14.40;1.00;;;;;;5081761;28;20118;-64